Time;durP1;ratioP1;P1;durP2;ratioP2;P2;SDS_P1;SDS_P2;PMS_P1;PMS_P2;Temp;Humidity;BMP_temperature;BMP_pressure;BME280_temperature;BME280_humidity;BME280_pressure;Samples;Min_cycle;Max_cycle;Signal;HPM_P1;HPM_P2
2022/01/12 00:01:09;;;;;;;4.53;2.33;;;21.70;29.20;;;;;;5049885;28;20025;-53
2022/01/12 00:03:35;;;;;;;2.95;2.10;;;21.70;29.20;;;;;;5050985;28;20123;-54
2022/01/12 00:06:05;;;;;;;3.60;2.45;;;21.60;29.20;;;;;;5044065;28;20029;-52
2022/01/12 00:08:32;;;;;;;3.58;2.33;;;21.70;29.30;;;;;;5042289;28;20021;-54
2022/01/12 00:11:02;;;;;;;3.58;2.45;;;21.70;29.30;;;;;;5040229;28;20079;-57
2022/01/12 00:13:29;;;;;;;4.97;2.58;;;21.70;29.30;;;;;;5050545;28;20040;-54
2022/01/12 00:15:55;;;;;;;3.95;2.28;;;21.70;29.30;;;;;;5042520;28;20469;-50
2022/01/12 00:18:21;;;;;;;2.35;2.15;;;21.60;29.30;;;;;;5046637;28;20017;-50
2022/01/12 00:20:49;;;;;;;5.38;2.20;;;21.60;29.30;;;;;;5054010;28;20017;-50
2022/01/12 00:23:16;;;;;;;3.25;2.25;;;21.60;29.40;;;;;;5044123;28;20164;-56
2022/01/12 00:26:02;;;;;;;3.30;2.40;;;21.60;29.40;;;;;;5051204;28;20036;-57
2022/01/12 00:34:02;;;;;;;;;;;21.50;29.40;;;;;;5022990;28;20021;-54
2022/01/12 00:36:29;;;;;;;3.13;2.25;;;21.50;29.40;;;;;;5027238;28;19959;-48
2022/01/12 00:38:56;;;;;;;2.25;1.98;;;21.50;29.50;;;;;;5039302;28;20787;-58
2022/01/12 00:41:24;;;;;;;2.88;2.33;;;21.50;29.50;;;;;;5019257;28;20407;-60
2022/01/12 00:43:57;;;;;;;3.40;2.50;;;21.50;29.50;;;;;;5022250;28;20056;-58
2022/01/12 00:46:27;;;;;;;2.85;2.20;;;21.50;29.50;;;;;;5034860;28;20079;-50
2022/01/12 00:48:55;;;;;;;3.22;2.50;;;21.50;29.80;;;;;;5045904;28;20030;-57
2022/01/12 00:51:22;;;;;;;3.95;2.45;;;21.50;29.60;;;;;;5052726;28;20039;-57
2022/01/12 00:53:48;;;;;;;2.60;1.98;;;21.50;29.60;;;;;;5052775;28;20017;-54
2022/01/12 00:56:13;;;;;;;3.40;2.58;;;21.40;29.60;;;;;;5049492;28;20059;-54
2022/01/12 00:58:39;;;;;;;2.85;2.20;;;21.40;29.60;;;;;;5043691;28;20025;-52
2022/01/12 01:01:05;;;;;;;3.10;2.33;;;21.50;29.70;;;;;;5048747;28;20017;-52
2022/01/12 01:03:31;;;;;;;3.00;2.20;;;21.50;29.70;;;;;;5043016;28;20036;-52
2022/01/12 01:05:59;;;;;;;3.13;2.35;;;21.40;29.70;;;;;;5035357;28;20028;-54
2022/01/12 01:08:25;;;;;;;3.03;2.38;;;21.50;29.80;;;;;;5045412;28;20029;-55
2022/01/12 01:10:53;;;;;;;2.97;2.30;;;21.40;29.70;;;;;;5022695;28;20090;-54
2022/01/12 01:13:27;;;;;;;3.22;2.50;;;21.40;29.80;;;;;;5024492;28;20025;-57
2022/01/12 01:16:02;;;;;;;3.33;2.30;;;21.40;29.90;;;;;;5023251;28;20044;-54
2022/01/12 01:26:51;;;;;;;2.40;1.83;;;21.30;29.90;;;;;;5006288;28;19912;-53
2022/01/12 01:29:17;;;;;;;3.42;2.40;;;21.30;29.90;;;;;;5030479;28;20404;-54
2022/01/12 01:31:45;;;;;;;3.65;2.65;;;21.30;29.90;;;;;;5025125;28;20025;-54
2022/01/12 01:34:13;;;;;;;3.50;2.80;;;21.30;29.90;;;;;;5032976;28;20016;-55
2022/01/12 01:36:46;;;;;;;2.70;2.40;;;21.30;29.90;;;;;;5025185;28;20059;-53
2022/01/12 01:39:15;;;;;;;3.05;2.42;;;21.30;29.90;;;;;;5025943;28;20035;-58
2022/01/12 01:41:46;;;;;;;3.13;2.65;;;21.30;29.90;;;;;;5050548;28;20029;-53
2022/01/12 01:54:57;;;;;;;2.95;2.35;;;21.30;29.90;;;;;;5037950;28;20047;-52
2022/01/12 01:57:25;;;;;;;2.90;2.20;;;21.30;30.00;;;;;;5028846;28;20048;-54
2022/01/12 01:59:51;;;;;;;3.00;2.45;;;21.30;30.00;;;;;;5018200;28;20079;-53
2022/01/12 02:02:17;;;;;;;5.95;2.67;;;21.30;30.00;;;;;;5018695;28;20104;-56
2022/01/12 02:04:43;;;;;;;3.08;2.42;;;21.30;30.00;;;;;;5018226;28;20448;-56
2022/01/12 02:07:08;;;;;;;3.03;2.22;;;21.30;30.00;;;;;;5019028;28;20029;-57
2022/01/12 02:09:35;;;;;;;2.83;2.25;;;21.30;30.00;;;;;;5055404;28;20056;-56
2022/01/12 02:12:12;;;;;;;3.15;2.47;;;21.30;30.00;;;;;;5033839;28;20027;-54
2022/01/12 02:14:39;;;;;;;3.63;2.75;;;21.30;30.00;;;;;;5037636;28;20206;-53
2022/01/12 02:17:14;;;;;;;3.20;2.25;;;21.20;30.00;;;;;;5034387;28;20809;-51
2022/01/12 02:36:21;;;;;;;2.70;2.38;;;21.20;30.00;;;;;;5046105;28;20086;-54
2022/01/12 02:41:31;;;;;;;;;;;21.20;30.10;;;;;;5054166;28;20028;-56
2022/01/12 02:54:43;;;;;;;3.03;2.35;;;21.20;30.20;;;;;;5018399;28;20029;-56
2022/01/12 02:57:09;;;;;;;3.45;3.05;;;21.20;30.20;;;;;;5026212;28;20052;-54
2022/01/12 02:59:36;;;;;;;4.30;2.90;;;21.20;30.20;;;;;;5051177;28;20040;-57
2022/01/12 03:04:31;;;;;;;3.77;2.83;;;21.10;30.10;;;;;;5037296;28;20397;-56
2022/01/12 03:07:05;;;;;;;3.50;2.88;;;21.10;30.20;;;;;;5027730;28;20116;-56
2022/01/12 03:09:33;;;;;;;4.25;3.03;;;21.10;30.20;;;;;;5017430;28;20047;-57
2022/01/12 03:11:59;;;;;;;3.20;2.78;;;21.10;30.20;;;;;;5025924;28;20032;-51
2022/01/12 03:14:25;;;;;;;4.45;3.05;;;21.10;30.20;;;;;;5037294;28;20033;-56
2022/01/12 03:16:51;;;;;;;3.83;3.08;;;21.10;30.20;;;;;;5028638;28;20029;-55
2022/01/12 03:19:26;;;;;;;4.10;2.70;;;21.10;30.20;;;;;;5029011;28;20025;-52
2022/01/12 03:21:52;;;;;;;4.80;3.40;;;21.10;30.20;;;;;;5028782;28;20072;-55
2022/01/12 03:24:18;;;;;;;3.35;2.70;;;21.10;30.20;;;;;;5018984;28;20391;-54
2022/01/12 03:26:46;;;;;;;3.50;3.15;;;21.10;30.20;;;;;;5026708;28;20337;-57
2022/01/12 03:29:17;;;;;;;4.43;3.35;;;21.10;30.20;;;;;;5033228;28;20030;-54
2022/01/12 03:31:43;;;;;;;4.25;3.50;;;21.10;30.20;;;;;;5054114;28;20032;-55
2022/01/12 03:34:21;;;;;;;3.88;3.10;;;21.10;30.20;;;;;;5035307;28;20033;-53
2022/01/12 03:39:19;;;;;;;4.72;3.50;;;21.10;30.30;;;;;;5052285;28;20028;-56
2022/01/12 03:41:45;;;;;;;4.97;3.55;;;21.10;30.30;;;;;;5036973;28;20048;-53
2022/01/12 03:44:13;;;;;;;4.13;3.35;;;21.10;30.30;;;;;;5017427;28;20032;-56
2022/01/12 03:46:51;;;;;;;4.45;3.67;;;21.00;30.30;;;;;;5017054;28;20448;-55
2022/01/12 03:49:20;;;;;;;4.00;3.30;;;21.10;30.30;;;;;;5021325;28;20037;-56
2022/01/12 03:51:46;;;;;;;4.57;3.55;;;21.10;30.30;;;;;;5036472;28;20432;-56
2022/01/12 03:54:12;;;;;;;3.65;3.00;;;21.00;30.30;;;;;;5050301;28;20033;-59
2022/01/12 03:56:39;;;;;;;3.13;2.78;;;21.00;30.30;;;;;;5036054;28;20052;-58
2022/01/12 03:59:06;;;;;;;4.32;3.55;;;21.00;30.30;;;;;;5031984;28;20033;-52
2022/01/12 04:01:34;;;;;;;3.85;3.00;;;21.10;30.40;;;;;;5053184;28;20025;-53
2022/01/12 04:04:05;;;;;;;4.20;3.03;;;21.00;30.40;;;;;;5044594;28;20093;-54
2022/01/12 04:09:17;;;;;;;3.55;2.88;;;21.00;30.40;;;;;;5037952;28;20518;-59
2022/01/12 04:11:43;;;;;;;4.15;3.22;;;21.00;30.40;;;;;;5037440;28;20037;-57
2022/01/12 04:14:10;;;;;;;3.30;2.80;;;21.00;30.50;;;;;;5039192;28;20017;-51
2022/01/12 04:16:37;;;;;;;3.30;2.70;;;21.00;30.50;;;;;;5039005;28;20032;-59
2022/01/12 04:19:04;;;;;;;4.82;3.33;;;21.00;30.60;;;;;;5027790;28;20024;-56
2022/01/12 04:21:33;;;;;;;3.28;2.83;;;21.00;30.60;;;;;;5037785;28;20104;-54
2022/01/12 04:23:59;;;;;;;4.38;3.00;;;21.00;30.60;;;;;;5027277;28;20017;-58
2022/01/12 04:26:30;;;;;;;3.10;2.80;;;21.00;30.60;;;;;;5038528;28;20040;-54
2022/01/12 04:28:56;;;;;;;3.78;3.08;;;21.00;30.60;;;;;;5044478;28;20106;-57
2022/01/12 04:31:22;;;;;;;4.85;3.33;;;21.00;30.60;;;;;;5056922;28;20424;-50
2022/01/12 04:33:48;;;;;;;4.00;3.17;;;21.00;30.60;;;;;;5035681;28;20024;-55
2022/01/12 04:36:15;;;;;;;4.07;3.20;;;21.00;30.60;;;;;;5039531;28;20424;-55
2022/01/12 04:38:44;;;;;;;3.20;2.58;;;21.00;30.60;;;;;;5025146;28;20024;-55
2022/01/12 04:41:10;;;;;;;2.63;2.30;;;20.90;30.50;;;;;;5056978;28;20035;-53
2022/01/12 04:43:42;;;;;;;3.53;2.92;;;21.00;30.60;;;;;;5043281;28;20082;-55
2022/01/12 04:46:22;;;;;;;3.63;2.80;;;21.00;30.60;;;;;;5057426;28;20385;-54
2022/01/12 04:48:53;;;;;;;2.92;2.47;;;21.00;30.60;;;;;;5036603;28;20033;-60
2022/01/12 04:51:20;;;;;;;3.03;2.72;;;21.00;30.60;;;;;;5056849;28;20062;-51
2022/01/12 04:53:46;;;;;;;3.70;2.85;;;21.00;30.70;;;;;;5051796;28;20115;-58
2022/01/12 04:56:12;;;;;;;2.92;2.58;;;21.00;30.60;;;;;;5038494;28;20080;-53
2022/01/12 04:58:39;;;;;;;4.10;3.00;;;20.90;30.60;;;;;;5049822;28;20049;-55
2022/01/12 05:01:09;;;;;;;3.20;2.70;;;20.90;30.60;;;;;;5039089;28;20033;-54
2022/01/12 05:09:16;;;;;;;;;;;20.90;30.60;;;;;;5036185;28;20083;-59
2022/01/12 05:14:36;;;;;;;2.70;2.33;;;20.80;30.70;;;;;;5036850;28;20036;-56
2022/01/12 05:17:03;;;;;;;4.55;2.63;;;20.80;30.60;;;;;;5022012;28;20352;-50
2022/01/12 05:19:29;;;;;;;2.75;2.50;;;20.90;30.70;;;;;;5038150;28;20047;-55
2022/01/12 05:21:54;;;;;;;2.65;2.40;;;20.80;30.70;;;;;;5034337;28;20037;-56
2022/01/12 05:24:20;;;;;;;3.25;2.60;;;20.80;30.70;;;;;;5033349;28;20021;-58
2022/01/12 05:26:46;;;;;;;2.95;2.65;;;20.90;30.70;;;;;;5034115;28;20033;-58
2022/01/12 05:29:13;;;;;;;3.10;2.80;;;20.90;30.80;;;;;;5037400;28;20028;-60
2022/01/12 05:31:39;;;;;;;4.00;3.10;;;20.90;30.80;;;;;;5036347;28;20025;-56
2022/01/12 05:34:05;;;;;;;3.65;2.92;;;20.80;30.80;;;;;;5053272;28;20016;-53
2022/01/12 05:36:32;;;;;;;3.95;3.00;;;20.80;30.80;;;;;;5035843;28;20480;-57
2022/01/12 05:39:00;;;;;;;3.35;2.75;;;20.90;30.90;;;;;;5035351;28;20460;-58
2022/01/12 05:41:27;;;;;;;3.42;2.80;;;20.80;30.90;;;;;;5037285;28;20116;-56
2022/01/12 05:43:56;;;;;;;3.17;2.83;;;20.80;30.90;;;;;;5034876;28;20071;-58
2022/01/12 05:46:25;;;;;;;2.70;2.45;;;20.80;30.90;;;;;;5055178;28;20382;-55
2022/01/12 05:51:40;;;;;;;2.95;2.65;;;20.80;30.90;;;;;;5034623;28;20041;-55
2022/01/12 05:54:06;;;;;;;4.15;3.30;;;20.80;30.90;;;;;;5053265;28;20045;-59
2022/01/12 05:56:32;;;;;;;3.53;3.13;;;20.80;30.90;;;;;;5036942;28;20041;-52
2022/01/12 05:58:58;;;;;;;4.28;3.28;;;20.80;30.90;;;;;;5032675;28;20351;-54
2022/01/12 06:01:24;;;;;;;4.10;3.28;;;20.80;30.90;;;;;;5037319;28;20028;-55
2022/01/12 06:03:52;;;;;;;4.72;3.08;;;20.80;30.90;;;;;;5029426;28;20029;-54
2022/01/12 06:06:18;;;;;;;3.38;2.90;;;20.80;30.90;;;;;;5037729;28;20439;-53
2022/01/12 06:08:44;;;;;;;3.85;3.42;;;20.80;31.00;;;;;;5015651;28;20408;-53
2022/01/12 06:11:11;;;;;;;3.90;3.10;;;20.80;31.00;;;;;;5037962;28;20340;-55
2022/01/12 06:13:38;;;;;;;3.88;3.47;;;20.80;31.00;;;;;;5026865;28;20021;-51
2022/01/12 06:16:04;;;;;;;3.53;3.00;;;20.80;31.00;;;;;;5037137;28;20025;-54
2022/01/12 06:18:32;;;;;;;4.20;3.50;;;20.80;31.00;;;;;;5032976;28;20025;-58
2022/01/12 06:20:58;;;;;;;3.55;3.05;;;20.80;31.10;;;;;;5037663;28;20036;-57
2022/01/12 06:23:42;;;;;;;3.75;3.00;;;20.80;31.10;;;;;;5044263;28;20040;-57
2022/01/12 06:26:10;;;;;;;3.58;3.22;;;20.70;31.10;;;;;;5034078;28;20037;-59
2022/01/12 06:28:39;;;;;;;3.80;3.30;;;20.80;31.10;;;;;;5050605;28;20024;-59
2022/01/12 06:31:10;;;;;;;4.15;3.22;;;20.80;31.10;;;;;;5055020;28;20029;-56
2022/01/12 06:33:45;;;;;;;4.30;3.47;;;20.80;31.10;;;;;;5049311;28;20029;-57
2022/01/12 06:36:16;;;;;;;3.88;3.30;;;20.70;31.10;;;;;;5054603;28;20025;-55
2022/01/12 06:38:43;;;;;;;3.65;2.92;;;20.70;31.20;;;;;;5035744;28;20098;-55
2022/01/12 06:41:11;;;;;;;3.45;2.72;;;20.80;31.20;;;;;;5054594;28;20053;-59
2022/01/12 06:43:38;;;;;;;3.80;3.10;;;20.70;31.20;;;;;;5035040;28;20486;-56
2022/01/12 06:46:06;;;;;;;4.57;3.53;;;20.70;31.20;;;;;;5036575;28;20463;-53
2022/01/12 06:48:32;;;;;;;4.28;3.50;;;20.70;31.20;;;;;;5020602;28;20025;-51
2022/01/12 06:50:58;;;;;;;3.65;3.15;;;20.70;31.20;;;;;;5023996;28;20101;-57
2022/01/12 06:53:24;;;;;;;4.07;3.22;;;20.80;31.30;;;;;;5017347;28;20022;-54
2022/01/12 06:55:51;;;;;;;3.67;3.05;;;20.70;31.30;;;;;;5022105;28;20120;-57
2022/01/12 06:58:17;;;;;;;4.28;3.53;;;20.80;31.40;;;;;;5016805;28;20028;-59
2022/01/12 07:00:43;;;;;;;4.57;3.47;;;20.70;31.30;;;;;;5023071;28;20029;-59
2022/01/12 07:03:10;;;;;;;3.83;3.28;;;20.80;31.40;;;;;;5017431;28;20101;-55
2022/01/12 07:05:43;;;;;;;4.10;3.30;;;20.70;31.40;;;;;;5026096;28;20093;-52
2022/01/12 07:08:09;;;;;;;3.92;3.28;;;20.70;31.50;;;;;;5033127;28;20070;-50
2022/01/12 07:10:39;;;;;;;4.20;3.40;;;20.70;31.50;;;;;;5035962;28;20029;-57
2022/01/12 07:13:14;;;;;;;4.57;3.38;;;20.70;31.50;;;;;;5022895;28;20017;-52
2022/01/12 07:15:41;;;;;;;4.70;3.45;;;20.70;31.60;;;;;;5035974;28;20063;-56
2022/01/12 07:18:08;;;;;;;4.72;3.67;;;20.70;32.20;;;;;;5032911;28;20025;-55
2022/01/12 07:20:34;;;;;;;4.90;3.78;;;20.70;31.60;;;;;;5036077;28;20025;-55
2022/01/12 07:23:00;;;;;;;4.20;3.53;;;20.70;31.60;;;;;;5039159;28;20033;-56
2022/01/12 07:25:26;;;;;;;4.70;3.60;;;20.70;31.60;;;;;;5052938;28;20055;-54
2022/01/12 07:27:52;;;;;;;5.50;3.38;;;20.70;31.60;;;;;;5051776;28;20048;-57
2022/01/12 07:30:20;;;;;;;5.90;3.65;;;20.70;31.70;;;;;;5052005;28;20025;-57
2022/01/12 07:32:47;;;;;;;4.75;3.50;;;20.70;31.60;;;;;;5038740;28;20022;-57
2022/01/12 07:35:13;;;;;;;5.15;3.58;;;20.70;31.70;;;;;;5052870;28;20032;-58
2022/01/12 07:37:39;;;;;;;4.57;3.47;;;20.70;31.70;;;;;;5052292;28;20104;-56
2022/01/12 07:40:05;;;;;;;5.70;3.70;;;20.70;31.70;;;;;;5054877;28;20396;-55
2022/01/12 07:42:31;;;;;;;4.93;3.50;;;20.70;31.70;;;;;;5054952;28;20049;-52
2022/01/12 07:45:01;;;;;;;4.05;3.35;;;20.60;31.70;;;;;;5055968;28;20062;-51
2022/01/12 07:47:28;;;;;;;4.13;3.33;;;20.70;31.80;;;;;;5051316;28;20140;-57
2022/01/12 07:49:54;;;;;;;5.03;3.75;;;20.70;31.80;;;;;;5057732;28;20055;-57
2022/01/12 07:52:20;;;;;;;5.18;3.47;;;20.70;31.90;;;;;;5054413;28;20104;-55
2022/01/12 07:54:46;;;;;;;4.07;3.65;;;20.70;32.00;;;;;;5057491;28;20114;-54
2022/01/12 07:57:12;;;;;;;5.78;4.00;;;20.80;32.00;;;;;;5040856;28;20138;-53
2022/01/12 07:59:37;;;;;;;4.70;3.67;;;20.80;32.00;;;;;;5057436;28;20380;-50
2022/01/12 08:02:03;;;;;;;4.32;3.58;;;20.90;32.00;;;;;;5054112;28;20040;-55
2022/01/12 08:04:29;;;;;;;5.50;3.95;;;20.90;31.90;;;;;;5056335;28;20028;-57
2022/01/12 08:06:56;;;;;;;7.20;3.83;;;21.00;31.80;;;;;;5038551;28;20125;-52
2022/01/12 08:09:22;;;;;;;6.78;4.18;;;21.10;31.80;;;;;;5057691;28;20043;-54
2022/01/12 08:11:48;;;;;;;5.65;3.65;;;21.10;31.70;;;;;;5057568;28;20021;-56
2022/01/12 08:14:15;;;;;;;5.15;4.05;;;21.20;31.60;;;;;;5039718;28;20111;-51
2022/01/12 08:16:42;;;;;;;6.10;4.38;;;21.30;31.60;;;;;;5050020;28;20028;-53
2022/01/12 08:19:08;;;;;;;5.45;3.92;;;21.40;31.50;;;;;;5052916;28;20028;-56
2022/01/12 08:21:34;;;;;;;4.97;4.05;;;21.50;31.40;;;;;;5057373;28;20459;-57
2022/01/12 08:24:01;;;;;;;5.97;4.13;;;21.50;31.30;;;;;;5055294;28;20025;-54
2022/01/12 08:26:32;;;;;;;6.18;4.35;;;21.60;31.30;;;;;;5039442;28;20126;-53
2022/01/12 08:28:58;;;;;;;5.80;4.00;;;21.70;31.30;;;;;;5055623;28;20123;-57
2022/01/12 08:31:24;;;;;;;5.35;4.22;;;21.80;31.20;;;;;;5026411;28;20476;-58
2022/01/12 08:33:50;;;;;;;6.05;4.45;;;21.90;31.10;;;;;;5038836;28;20024;-55
2022/01/12 08:36:16;;;;;;;6.93;4.30;;;22.00;31.00;;;;;;5056695;28;20104;-59
2022/01/12 08:38:42;;;;;;;5.30;3.80;;;22.00;30.90;;;;;;5056926;28;20432;-51
2022/01/12 08:41:11;;;;;;;6.30;4.18;;;22.10;30.90;;;;;;5056794;28;20215;-58
2022/01/12 08:43:37;;;;;;;5.20;3.90;;;22.10;30.80;;;;;;5054564;28;20057;-49
2022/01/12 08:46:03;;;;;;;4.57;3.65;;;22.20;30.80;;;;;;5056093;28;20068;-51
2022/01/12 08:48:29;;;;;;;6.07;3.70;;;22.30;30.80;;;;;;5038544;28;20032;-50
2022/01/12 08:50:55;;;;;;;4.88;3.40;;;22.40;30.70;;;;;;5055531;28;20036;-48
2022/01/12 08:53:21;;;;;;;4.75;3.60;;;22.40;30.60;;;;;;5056603;28;20021;-51
2022/01/12 08:55:47;;;;;;;4.30;3.42;;;22.50;30.50;;;;;;5056002;28;20049;-51
2022/01/12 08:58:13;;;;;;;4.60;3.55;;;22.60;30.50;;;;;;5047824;28;20065;-51
2022/01/12 09:00:38;;;;;;;3.88;2.90;;;22.60;30.30;;;;;;5051838;28;20049;-52
2022/01/12 09:03:05;;;;;;;4.60;3.30;;;22.70;30.30;;;;;;5047662;28;20325;-48
2022/01/12 09:05:32;;;;;;;2.95;2.63;;;22.80;30.20;;;;;;5047201;28;20412;-51
2022/01/12 09:07:59;;;;;;;4.72;3.55;;;22.80;30.10;;;;;;5038430;28;20128;-50
2022/01/12 09:10:25;;;;;;;4.38;3.38;;;22.90;30.00;;;;;;5054664;28;20028;-51
2022/01/12 09:12:51;;;;;;;5.03;3.63;;;22.90;30.50;;;;;;5052438;28;20028;-49
2022/01/12 09:15:17;;;;;;;4.72;3.17;;;23.00;30.00;;;;;;5056106;28;20094;-52
2022/01/12 09:17:43;;;;;;;4.22;3.15;;;23.00;29.90;;;;;;5054751;28;20085;-48
2022/01/12 09:20:10;;;;;;;4.40;3.33;;;23.10;29.90;;;;;;5055653;28;20344;-47
2022/01/12 09:22:40;;;;;;;4.15;2.97;;;23.10;29.80;;;;;;5052716;28;20086;-49
2022/01/12 09:25:07;;;;;;;6.07;3.15;;;23.20;29.80;;;;;;5054618;28;20329;-46
2022/01/12 09:27:33;;;;;;;4.00;3.17;;;23.20;29.80;;;;;;5041447;28;20183;-54
2022/01/12 09:29:59;;;;;;;4.55;3.17;;;23.30;29.70;;;;;;5044062;28;20120;-48
2022/01/12 09:32:25;;;;;;;4.25;3.00;;;23.30;29.70;;;;;;5044499;28;20024;-50
2022/01/12 09:34:51;;;;;;;3.67;2.78;;;23.40;29.70;;;;;;5053921;28;20383;-53
2022/01/12 09:37:17;;;;;;;4.15;2.97;;;23.40;29.70;;;;;;5052140;28;20335;-48
2022/01/12 09:39:42;;;;;;;3.78;2.63;;;23.40;29.60;;;;;;5038221;28;20044;-49
2022/01/12 09:42:08;;;;;;;3.53;2.80;;;23.40;29.60;;;;;;5055416;28;20044;-51
2022/01/12 09:44:37;;;;;;;3.88;2.85;;;23.50;29.60;;;;;;5038283;28;20035;-48
2022/01/12 09:47:06;;;;;;;4.35;2.85;;;23.50;29.50;;;;;;5041426;28;20125;-51
2022/01/12 09:49:32;;;;;;;2.85;2.20;;;23.50;29.50;;;;;;5036652;28;20029;-53
2022/01/12 09:51:58;;;;;;;2.92;2.33;;;23.50;29.50;;;;;;5038914;28;20121;-47
2022/01/12 09:54:26;;;;;;;4.25;2.42;;;23.50;29.50;;;;;;5040287;28;20025;-48
2022/01/12 09:56:52;;;;;;;3.45;2.70;;;23.60;29.50;;;;;;5049095;28;20348;-46
2022/01/12 09:59:18;;;;;;;3.85;3.13;;;23.50;29.40;;;;;;5054440;28;20028;-51
2022/01/12 10:01:45;;;;;;;3.78;2.92;;;23.50;29.50;;;;;;5051958;28;20025;-51
2022/01/12 10:04:18;;;;;;;5.00;3.30;;;23.40;29.50;;;;;;5040412;28;20437;-47
2022/01/12 10:06:47;;;;;;;4.18;3.20;;;23.40;29.50;;;;;;5050552;28;20452;-53
2022/01/12 10:09:14;;;;;;;4.43;3.13;;;23.30;29.50;;;;;;5052416;28;20025;-52
2022/01/12 10:11:54;;;;;;;3.20;2.70;;;23.40;29.60;;;;;;5043887;28;20017;-52
2022/01/12 10:14:22;;;;;;;4.05;3.13;;;23.30;30.00;;;;;;5017415;28;20021;-49
2022/01/12 10:16:53;;;;;;;3.70;3.13;;;23.20;29.60;;;;;;5049732;28;20035;-51
2022/01/12 10:19:27;;;;;;;5.32;3.17;;;23.20;29.60;;;;;;5055093;28;20036;-52
2022/01/12 10:21:53;;;;;;;;;;;23.20;29.70;;;;;;5055542;28;20494;-50
2022/01/12 10:24:20;;;;;;;3.67;2.83;;;23.10;29.70;;;;;;5055071;28;19909;-48
2022/01/12 10:26:47;;;;;;;4.35;3.13;;;23.00;29.70;;;;;;5054421;28;20048;-53
2022/01/12 10:29:18;;;;;;;4.75;2.88;;;23.00;29.70;;;;;;5020772;28;20032;-54
2022/01/12 10:31:51;;;;;;;4.10;2.67;;;23.00;29.80;;;;;;5054736;28;20025;-49
2022/01/12 10:34:19;;;;;;;5.28;3.50;;;23.00;29.80;;;;;;5054798;28;20017;-54
2022/01/12 10:36:46;;;;;;;5.50;2.60;;;22.90;29.70;;;;;;5054045;28;20028;-49
2022/01/12 10:39:14;;;;;;;3.47;2.53;;;22.90;29.70;;;;;;5054479;28;20024;-51
2022/01/12 10:41:57;;;;;;;3.90;2.88;;;22.90;30.20;;;;;;5054346;28;20424;-49
2022/01/12 10:44:32;;;;;;;4.25;3.20;;;22.80;29.70;;;;;;5054754;28;20028;-52
2022/01/12 10:47:08;;;;;;;;;;;22.80;29.80;;;;;;5055136;28;20032;-46
2022/01/12 10:49:36;;;;;;;4.07;2.97;;;22.80;29.80;;;;;;5055035;28;20227;-50
2022/01/12 10:52:07;;;;;;;3.45;2.70;;;22.80;29.80;;;;;;5054764;28;20352;-51
2022/01/12 10:55:04;;;;;;;4.03;3.00;;;22.80;29.80;;;;;;5054468;28;20021;-49
2022/01/12 10:57:35;;;;;;;4.15;3.00;;;22.80;29.70;;;;;;5034798;28;20428;-51
2022/01/12 11:00:07;;;;;;;4.38;3.00;;;22.80;29.80;;;;;;5054790;28;20025;-52
2022/01/12 11:02:35;;;;;;;4.80;2.78;;;22.80;29.80;;;;;;5054882;28;20029;-54
2022/01/12 11:05:02;;;;;;;3.60;2.67;;;22.80;29.70;;;;;;5054874;28;20387;-50
2022/01/12 11:07:31;;;;;;;3.30;2.50;;;22.80;29.70;;;;;;5054256;28;20420;-51
2022/01/12 11:10:02;;;;;;;4.05;2.85;;;22.80;29.70;;;;;;5054172;28;20052;-49
2022/01/12 11:12:28;;;;;;;4.35;3.10;;;22.80;29.70;;;;;;5054461;28;20029;-50
2022/01/12 11:14:54;;;;;;;3.65;2.63;;;22.80;29.70;;;;;;5056643;28;20035;-51
2022/01/12 11:17:20;;;;;;;4.45;2.80;;;22.80;29.70;;;;;;5058200;28;20076;-52
2022/01/12 11:20:01;;;;;;;3.78;2.67;;;22.80;29.70;;;;;;5058710;28;20028;-51
2022/01/12 11:22:51;;;;;;;3.28;2.40;;;22.80;29.70;;;;;;5058493;28;20037;-50
2022/01/12 11:25:31;;;;;;;4.03;2.58;;;22.80;29.70;;;;;;5058292;28;20024;-50
2022/01/12 11:28:27;;;;;;;3.75;2.40;;;22.90;29.70;;;;;;5058301;28;20458;-51
2022/01/12 11:30:55;;;;;;;4.20;3.08;;;22.80;29.60;;;;;;5037859;28;20139;-48
2022/01/12 11:33:33;;;;;;;3.17;2.40;;;22.80;29.70;;;;;;5053239;28;20429;-50
2022/01/12 11:36:11;;;;;;;4.05;2.90;;;22.80;29.60;;;;;;5057079;28;20170;-49
2022/01/12 11:38:37;;;;;;;4.57;3.00;;;22.80;29.70;;;;;;5057588;28;20438;-53
2022/01/12 11:41:13;;;;;;;3.22;2.72;;;22.80;29.70;;;;;;5055009;28;20082;-52
2022/01/12 11:43:53;;;;;;;3.90;2.50;;;22.80;29.80;;;;;;5058145;28;20111;-51
2022/01/12 11:46:23;;;;;;;4.78;2.97;;;22.80;29.80;;;;;;5054570;28;20028;-51
2022/01/12 11:48:57;;;;;;;3.90;2.67;;;22.70;29.90;;;;;;5039726;28;20349;-49
2022/01/12 11:51:36;;;;;;;3.28;2.35;;;22.80;29.90;;;;;;5050770;28;20075;-55
2022/01/12 11:54:17;;;;;;;3.13;2.47;;;22.80;29.90;;;;;;5020567;28;20129;-55
2022/01/12 11:57:01;;;;;;;3.92;2.65;;;22.80;29.90;;;;;;5020544;28;20113;-51
2022/01/12 11:59:29;;;;;;;3.45;2.60;;;22.80;29.80;;;;;;5039879;28;20048;-52
2022/01/12 12:02:15;;;;;;;3.72;2.47;;;22.70;29.90;;;;;;5038566;28;20014;-53
2022/01/12 12:04:53;;;;;;;3.20;2.40;;;22.70;29.80;;;;;;5037522;28;20025;-53
2022/01/12 12:07:20;;;;;;;3.50;2.28;;;22.70;29.80;;;;;;5041799;28;20327;-51
2022/01/12 12:09:52;;;;;;;4.32;2.70;;;22.70;29.90;;;;;;5056257;28;20333;-54
2022/01/12 12:12:28;;;;;;;4.00;3.00;;;22.70;29.80;;;;;;5054913;28;20021;-48
2022/01/12 12:14:57;;;;;;;3.88;2.78;;;22.70;29.80;;;;;;5057161;28;20394;-52
2022/01/12 12:17:25;;;;;;;4.30;2.63;;;22.70;29.80;;;;;;5048263;28;20018;-52
2022/01/12 12:19:52;;;;;;;3.78;2.70;;;22.70;29.80;;;;;;5037689;28;20112;-49
2022/01/12 12:22:21;;;;;;;4.03;2.88;;;22.70;29.80;;;;;;5039470;28;20017;-51
2022/01/12 12:24:54;;;;;;;4.28;2.88;;;22.70;29.80;;;;;;5037439;28;20029;-47
2022/01/12 12:27:22;;;;;;;4.20;2.95;;;22.70;29.80;;;;;;5036243;28;20162;-49
2022/01/12 12:29:49;;;;;;;3.92;3.08;;;22.70;29.80;;;;;;5037497;28;20134;-52
2022/01/12 12:32:16;;;;;;;3.53;2.30;;;22.70;29.80;;;;;;5038082;28;20047;-49
2022/01/12 12:34:44;;;;;;;3.50;2.65;;;22.70;29.80;;;;;;5037257;28;20065;-50
2022/01/12 12:37:12;;;;;;;3.88;2.50;;;22.70;29.80;;;;;;5040149;28;20018;-49
2022/01/12 12:39:41;;;;;;;4.35;2.50;;;22.70;29.80;;;;;;5056832;28;20409;-52
2022/01/12 12:42:21;;;;;;;3.75;2.65;;;22.70;29.80;;;;;;5056236;28;20096;-49
2022/01/12 12:44:48;;;;;;;3.53;2.67;;;22.70;29.80;;;;;;5056057;28;20108;-51
2022/01/12 12:47:19;;;;;;;2.85;2.08;;;22.60;29.80;;;;;;5054576;28;20335;-52
2022/01/12 12:50:00;;;;;;;4.13;2.67;;;22.60;29.70;;;;;;5056721;28;20021;-48
2022/01/12 12:52:38;;;;;;;4.18;2.80;;;22.70;29.70;;;;;;5056741;28;20079;-53
2022/01/12 12:55:13;;;;;;;4.10;2.60;;;22.60;29.70;;;;;;5050209;28;20036;-52
2022/01/12 12:57:51;;;;;;;3.53;2.30;;;22.60;29.70;;;;;;5045080;28;20033;-52
2022/01/12 13:00:20;;;;;;;5.53;2.92;;;22.60;29.70;;;;;;5056317;28;20040;-51
2022/01/12 13:02:49;;;;;;;3.90;2.83;;;22.60;29.80;;;;;;5038309;28;20071;-47
2022/01/12 13:05:21;;;;;;;4.32;3.00;;;22.60;29.90;;;;;;5055754;28;20033;-52
2022/01/12 13:07:48;;;;;;;4.15;2.92;;;22.60;30.00;;;;;;5056764;28;20048;-52
2022/01/12 13:10:20;;;;;;;4.22;2.65;;;22.60;30.10;;;;;;5056394;28;20484;-49
2022/01/12 13:12:47;;;;;;;3.90;2.42;;;22.60;30.10;;;;;;5056116;28;20087;-56
2022/01/12 13:15:21;;;;;;;5.03;2.70;;;22.60;30.20;;;;;;5055678;28;20070;-50
2022/01/12 13:17:48;;;;;;;5.03;2.92;;;22.60;30.20;;;;;;5055729;28;20035;-51
2022/01/12 13:23:18;;;;;;;3.33;2.55;;;22.60;30.30;;;;;;5055299;28;20115;-46
2022/01/12 13:25:44;;;;;;;4.55;2.85;;;22.60;30.40;;;;;;5056210;28;20025;-50
2022/01/12 13:28:10;;;;;;;4.28;2.70;;;22.50;30.30;;;;;;5042796;28;20460;-50
2022/01/12 13:30:51;;;;;;;3.88;3.15;;;22.60;30.30;;;;;;5035912;28;20025;-45
2022/01/12 13:33:25;;;;;;;3.50;2.65;;;22.60;30.20;;;;;;5019791;28;20034;-46
2022/01/12 13:35:51;;;;;;;3.85;2.50;;;22.60;30.20;;;;;;5054025;28;20053;-48
2022/01/12 13:38:26;;;;;;;3.72;2.83;;;22.50;30.20;;;;;;5032904;28;20071;-47
2022/01/12 13:40:55;;;;;;;;;;;22.60;30.20;;;;;;5046937;28;20401;-51
2022/01/12 13:43:23;;;;;;;2.97;2.45;;;22.50;30.20;;;;;;5036943;28;20305;-55
2022/01/12 13:45:57;;;;;;;2.85;2.53;;;22.50;30.20;;;;;;5051110;28;20074;-55
2022/01/12 13:48:29;;;;;;;4.30;3.13;;;22.50;30.20;;;;;;5049305;28;20087;-54
2022/01/12 13:50:59;;;;;;;5.00;2.85;;;22.50;30.30;;;;;;5049254;28;20033;-51
2022/01/12 13:53:31;;;;;;;3.45;2.50;;;22.60;30.40;;;;;;5053235;28;20104;-49
2022/01/12 13:55:57;;;;;;;3.17;2.28;;;22.60;30.90;;;;;;5041839;28;20113;-52
2022/01/12 13:58:31;;;;;;;3.97;2.30;;;22.60;30.30;;;;;;5042761;28;20164;-47
2022/01/12 14:01:07;;;;;;;3.97;2.60;;;22.60;30.30;;;;;;5035591;28;20417;-54
2022/01/12 14:03:53;;;;;;;4.03;2.45;;;22.70;30.40;;;;;;5036481;28;20043;-53
2022/01/12 14:06:24;;;;;;;3.55;2.25;;;22.70;30.30;;;;;;5035312;28;20440;-53
2022/01/12 14:08:55;;;;;;;2.78;2.03;;;22.80;30.30;;;;;;5045574;28;20393;-54
2022/01/12 14:11:32;;;;;;;4.18;2.35;;;22.80;30.20;;;;;;5036757;28;20071;-59
2022/01/12 14:14:00;;;;;;;5.43;2.42;;;22.80;30.20;;;;;;5050592;28;20020;-54